sensor_id;sensor_type;location;lat;lon;timestamp;pressure;altitude;pressure_sealevel;temperature;humidity
45327;BME280;31062;49.678;24.560;2023-02-18T00:02:18;97426.84;;;5.64;87.23
45327;BME280;31062;49.678;24.560;2023-02-18T00:05:03;97395.28;;;5.48;87.47
45327;BME280;31062;49.678;24.560;2023-02-18T00:07:49;97490.75;;;6.04;87.31
45327;BME280;31062;49.678;24.560;2023-02-18T00:10:34;97545.75;;;6.71;87.51
45327;BME280;31062;49.678;24.560;2023-02-18T00:13:20;97549.06;;;6.70;87.60
45327;BME280;31062;49.678;24.560;2023-02-18T00:16:08;97542.75;;;6.77;87.19
45327;BME280;31062;49.678;24.560;2023-02-18T00:18:59;97561.78;;;6.82;87.25
45327;BME280;31062;49.678;24.560;2023-02-18T00:21:45;97507.19;;;6.71;87.35
45327;BME280;31062;49.678;24.560;2023-02-18T00:24:30;97413.88;;;6.06;87.66
45327;BME280;31062;49.678;24.560;2023-02-18T00:27:16;97351.16;;;5.63;87.03
45327;BME280;31062;49.678;24.560;2023-02-18T00:30:02;97549.97;;;6.89;87.41
45327;BME280;31062;49.678;24.560;2023-02-18T00:32:50;97422.22;;;6.16;87.00
45327;BME280;31062;49.678;24.560;2023-02-18T00:35:36;97457.94;;;6.41;87.12
45327;BME280;31062;49.678;24.560;2023-02-18T00:38:21;97382.44;;;5.92;86.97
45327;BME280;31062;49.678;24.560;2023-02-18T00:41:07;97364.94;;;5.80;86.59
45327;BME280;31062;49.678;24.560;2023-02-18T00:43:53;97540.72;;;6.94;87.20
45327;BME280;31062;49.678;24.560;2023-02-18T00:46:39;97294.50;;;5.43;87.12
45327;BME280;31062;49.678;24.560;2023-02-18T00:49:25;97449.66;;;6.58;86.97
45327;BME280;31062;49.678;24.560;2023-02-18T00:52:10;97502.94;;;7.05;87.00
45327;BME280;31062;49.678;24.560;2023-02-18T00:54:58;97508.56;;;6.97;87.32
45327;BME280;31062;49.678;24.560;2023-02-18T00:57:43;97531.78;;;7.04;86.97
45327;BME280;31062;49.678;24.560;2023-02-18T01:00:28;97440.78;;;6.67;87.01
45327;BME280;31062;49.678;24.560;2023-02-18T01:03:14;97364.09;;;6.12;87.12
45327;BME280;31062;49.678;24.560;2023-02-18T01:06:00;97317.88;;;5.93;86.61
45327;BME280;31062;49.678;24.560;2023-02-18T01:08:45;97487.06;;;6.95;86.79
45327;BME280;31062;49.678;24.560;2023-02-18T01:11:31;97343.94;;;6.27;86.28
45327;BME280;31062;49.678;24.560;2023-02-18T01:14:16;97320.06;;;6.12;86.43
45327;BME280;31062;49.678;24.560;2023-02-18T01:17:02;97409.78;;;6.76;86.29
45327;BME280;31062;49.678;24.560;2023-02-18T01:19:47;97337.13;;;6.28;86.27
45327;BME280;31062;49.678;24.560;2023-02-18T01:22:33;97472.75;;;7.24;86.35
45327;BME280;31062;49.678;24.560;2023-02-18T01:25:18;97325.94;;;6.26;86.59
45327;BME280;31062;49.678;24.560;2023-02-18T01:28:06;97469.31;;;7.33;86.87
45327;BME280;31062;49.678;24.560;2023-02-18T01:30:53;97324.31;;;6.40;86.40
45327;BME280;31062;49.678;24.560;2023-02-18T01:33:39;97321.19;;;6.43;86.78
45327;BME280;31062;49.678;24.560;2023-02-18T01:36:25;97293.34;;;6.22;86.43
45327;BME280;31062;49.678;24.560;2023-02-18T01:39:13;97476.63;;;7.38;86.79
45327;BME280;31062;49.678;24.560;2023-02-18T01:41:59;97410.91;;;7.17;86.62
45327;BME280;31062;49.678;24.560;2023-02-18T01:44:46;97316.75;;;6.57;86.01
45327;BME280;31062;49.678;24.560;2023-02-18T01:47:32;97321.00;;;6.68;85.92
45327;BME280;31062;49.678;24.560;2023-02-18T01:50:17;97460.88;;;7.58;85.87
45327;BME280;31062;49.678;24.560;2023-02-18T01:53:03;97269.91;;;6.48;85.25
45327;BME280;31062;49.678;24.560;2023-02-18T01:55:49;97431.19;;;7.75;85.13
45327;BME280;31062;49.678;24.560;2023-02-18T01:58:35;97317.06;;;6.88;84.57
45327;BME280;31062;49.678;24.560;2023-02-18T02:01:21;97439.50;;;7.85;84.24
45327;BME280;31062;49.678;24.560;2023-02-18T02:04:07;97425.44;;;7.91;84.33
45327;BME280;31062;49.678;24.560;2023-02-18T02:06:53;97267.91;;;6.85;83.63
45327;BME280;31062;49.678;24.560;2023-02-18T02:09:41;97373.78;;;7.64;84.08
45327;BME280;31062;49.678;24.560;2023-02-18T02:16:02;97254.53;;;7.18;83.58
45327;BME280;31062;49.678;24.560;2023-02-18T02:40:43;97398.50;;;8.37;82.00
45327;BME280;31062;49.678;24.560;2023-02-18T02:43:47;97439.34;;;8.39;82.18
45327;BME280;31062;49.678;24.560;2023-02-18T02:46:38;97358.03;;;7.94;81.79
45327;BME280;31062;49.678;24.560;2023-02-18T02:49:27;97404.31;;;8.41;81.84
45327;BME280;31062;49.678;24.560;2023-02-18T02:52:21;97431.91;;;8.41;81.86
45327;BME280;31062;49.678;24.560;2023-02-18T02:55:10;97384.25;;;8.31;82.22
45327;BME280;31062;49.678;24.560;2023-02-18T02:57:58;97374.94;;;8.36;82.44
45327;BME280;31062;49.678;24.560;2023-02-18T03:10:14;97205.34;;;7.24;81.47
45327;BME280;31062;49.678;24.560;2023-02-18T03:13:30;97389.06;;;8.50;81.07
45327;BME280;31062;49.678;24.560;2023-02-18T03:22:17;97341.81;;;8.36;80.22
45327;BME280;31062;49.678;24.560;2023-02-18T03:25:04;97371.88;;;8.61;80.33
45327;BME280;31062;49.678;24.560;2023-02-18T03:27:57;97375.53;;;8.64;79.83
45327;BME280;31062;49.678;24.560;2023-02-18T03:30:50;97229.19;;;7.58;79.54
45327;BME280;31062;49.678;24.560;2023-02-18T03:33:42;97216.41;;;7.53;79.27
45327;BME280;31062;49.678;24.560;2023-02-18T03:36:31;97383.06;;;8.73;79.49
45327;BME280;31062;49.678;24.560;2023-02-18T03:39:18;97399.78;;;8.75;79.09
45327;BME280;31062;49.678;24.560;2023-02-18T03:42:05;97406.63;;;8.74;78.75
45327;BME280;31062;49.678;24.560;2023-02-18T03:44:51;97338.59;;;8.30;78.45
45327;BME280;31062;49.678;24.560;2023-02-18T03:47:39;97417.69;;;8.74;78.60
45327;BME280;31062;49.678;24.560;2023-02-18T03:50:25;97428.16;;;8.75;77.74
45327;BME280;31062;49.678;24.560;2023-02-18T03:53:11;97339.16;;;8.19;78.04
45327;BME280;31062;49.678;24.560;2023-02-18T03:55:56;97377.28;;;8.49;78.06
45327;BME280;31062;49.678;24.560;2023-02-18T03:58:41;97407.78;;;8.71;77.45
45327;BME280;31062;49.678;24.560;2023-02-18T04:01:27;97256.66;;;7.65;77.35
45327;BME280;31062;49.678;24.560;2023-02-18T04:04:13;97417.22;;;8.77;77.22
45327;BME280;31062;49.678;24.560;2023-02-18T04:06:58;97427.13;;;8.71;77.53
45327;BME280;31062;49.678;24.560;2023-02-18T04:09:43;97420.59;;;8.76;77.01
45327;BME280;31062;49.678;24.560;2023-02-18T04:12:29;97420.59;;;8.76;77.19
45327;BME280;31062;49.678;24.560;2023-02-18T04:15:15;97418.84;;;8.71;76.53
45327;BME280;31062;49.678;24.560;2023-02-18T04:18:00;97314.19;;;7.98;76.08
45327;BME280;31062;49.678;24.560;2023-02-18T04:20:46;97326.25;;;8.02;76.88
45327;BME280;31062;49.678;24.560;2023-02-18T04:23:32;97293.09;;;7.73;76.16
45327;BME280;31062;49.678;24.560;2023-02-18T04:26:18;97426.84;;;8.67;75.93
45327;BME280;31062;49.678;24.560;2023-02-18T04:29:04;97431.34;;;8.62;76.22
45327;BME280;31062;49.678;24.560;2023-02-18T04:31:49;97273.03;;;7.54;74.44
45327;BME280;31062;49.678;24.560;2023-02-18T04:34:35;97352.53;;;8.13;74.55
45327;BME280;31062;49.678;24.560;2023-02-18T04:37:20;97264.91;;;7.56;74.18
45327;BME280;31062;49.678;24.560;2023-02-18T04:40:07;97405.75;;;8.42;74.67
45327;BME280;31062;49.678;24.560;2023-02-18T04:42:52;97253.41;;;7.40;74.16
45327;BME280;31062;49.678;24.560;2023-02-18T04:45:38;97406.94;;;8.39;73.53
45327;BME280;31062;49.678;24.560;2023-02-18T04:48:23;97396.69;;;8.13;70.68
45327;BME280;31062;49.678;24.560;2023-02-18T04:51:08;97455.06;;;8.46;70.49
45327;BME280;31062;49.678;24.560;2023-02-18T04:53:54;97467.69;;;8.39;68.58
45327;BME280;31062;49.678;24.560;2023-02-18T04:56:39;97273.97;;;7.20;65.56
45327;BME280;31062;49.678;24.560;2023-02-18T04:59:25;97436.28;;;8.35;64.62
45327;BME280;31062;49.678;24.560;2023-02-18T05:02:10;97291.16;;;7.37;64.80
45327;BME280;31062;49.678;24.560;2023-02-18T05:04:56;97481.59;;;8.22;63.54
45327;BME280;31062;49.678;24.560;2023-02-18T05:07:41;97459.19;;;8.18;64.09
45327;BME280;31062;49.678;24.560;2023-02-18T05:10:27;97324.72;;;7.17;64.17
45327;BME280;31062;49.678;24.560;2023-02-18T05:13:12;97167.69;;;6.07;64.17
45327;BME280;31062;49.678;24.560;2023-02-18T05:15:59;97461.56;;;7.85;65.19
45327;BME280;31062;49.678;24.560;2023-02-18T05:18:44;97380.78;;;7.29;64.09
45327;BME280;31062;49.678;24.560;2023-02-18T05:21:30;97344.84;;;7.10;64.78
45327;BME280;31062;49.678;24.560;2023-02-18T05:24:16;97496.63;;;8.02;65.54
45327;BME280;31062;49.678;24.560;2023-02-18T05:27:02;97322.28;;;6.84;65.54
45327;BME280;31062;49.678;24.560;2023-02-18T05:29:47;97293.59;;;6.61;65.56
45327;BME280;31062;49.678;24.560;2023-02-18T05:32:33;97512.91;;;7.98;65.81
45327;BME280;31062;49.678;24.560;2023-02-18T05:35:18;97515.66;;;7.98;66.27
45327;BME280;31062;49.678;24.560;2023-02-18T05:38:03;97361.00;;;6.86;66.29
45327;BME280;31062;49.678;24.560;2023-02-18T05:40:49;97444.47;;;7.23;66.73
45327;BME280;31062;49.678;24.560;2023-02-18T05:43:35;97418.25;;;7.05;66.58
45327;BME280;31062;49.678;24.560;2023-02-18T05:46:40;97466.66;;;7.52;66.43
45327;BME280;31062;49.678;24.560;2023-02-18T05:49:27;97554.44;;;8.00;67.14
45327;BME280;31062;49.678;24.560;2023-02-18T05:52:13;97378.13;;;6.85;66.47
45327;BME280;31062;49.678;24.560;2023-02-18T05:54:58;97477.41;;;7.58;67.03
45327;BME280;31062;49.678;24.560;2023-02-18T05:57:43;97564.88;;;7.92;63.91
45327;BME280;31062;49.678;24.560;2023-02-18T06:00:28;97536.66;;;7.84;63.45
45327;BME280;31062;49.678;24.560;2023-02-18T06:03:15;97546.53;;;7.87;63.79
45327;BME280;31062;49.678;24.560;2023-02-18T06:06:01;97454.63;;;7.21;64.16
45327;BME280;31062;49.678;24.560;2023-02-18T06:08:46;97514.28;;;7.53;64.24
45327;BME280;31062;49.678;24.560;2023-02-18T06:11:32;97533.50;;;7.60;63.74
45327;BME280;31062;49.678;24.560;2023-02-18T06:14:17;97501.56;;;7.40;62.33
45327;BME280;31062;49.678;24.560;2023-02-18T06:17:03;97461.59;;;7.05;61.27
45327;BME280;31062;49.678;24.560;2023-02-18T06:19:48;97505.84;;;7.24;58.93
45327;BME280;31062;49.678;24.560;2023-02-18T06:22:34;97400.91;;;6.51;57.66
45327;BME280;31062;49.678;24.560;2023-02-18T06:25:19;97363.06;;;6.25;57.91
45327;BME280;31062;49.678;24.560;2023-02-18T06:28:05;97586.19;;;7.64;57.72
45327;BME280;31062;49.678;24.560;2023-02-18T06:30:51;97503.41;;;7.11;56.13
45327;BME280;31062;49.678;24.560;2023-02-18T06:33:37;97584.94;;;7.48;55.36
45327;BME280;31062;49.678;24.560;2023-02-18T06:36:23;97390.56;;;6.25;56.56
45327;BME280;31062;49.678;24.560;2023-02-18T06:39:08;97604.72;;;7.54;55.57
45327;BME280;31062;49.678;24.560;2023-02-18T06:41:53;97531.75;;;7.38;56.07
45327;BME280;31062;49.678;24.560;2023-02-18T06:44:39;97577.56;;;7.77;56.71
45327;BME280;31062;49.678;24.560;2023-02-18T06:47:24;97571.31;;;8.04;54.77
45327;BME280;31062;49.678;24.560;2023-02-18T06:50:09;97573.84;;;8.19;54.35
45327;BME280;31062;49.678;24.560;2023-02-18T06:52:55;97575.88;;;8.45;54.02
45327;BME280;31062;49.678;24.560;2023-02-18T06:55:42;97554.91;;;8.42;53.59
45327;BME280;31062;49.678;24.560;2023-02-18T06:58:27;97411.56;;;7.62;52.94
45327;BME280;31062;49.678;24.560;2023-02-18T07:01:13;97418.38;;;7.70;52.90
45327;BME280;31062;49.678;24.560;2023-02-18T07:03:58;97421.38;;;7.92;53.03
45327;BME280;31062;49.678;24.560;2023-02-18T07:06:44;97552.53;;;9.04;52.48
45327;BME280;31062;49.678;24.560;2023-02-18T07:09:29;97592.25;;;9.37;52.57
45327;BME280;31062;49.678;24.560;2023-02-18T07:12:15;97584.97;;;9.52;52.36
45327;BME280;31062;49.678;24.560;2023-02-18T07:15:00;97578.69;;;9.61;52.06
45327;BME280;31062;49.678;24.560;2023-02-18T07:17:45;97438.78;;;8.69;51.37
45327;BME280;31062;49.678;24.560;2023-02-18T07:20:31;97578.22;;;9.74;52.01
45327;BME280;31062;49.678;24.560;2023-02-18T07:23:17;97431.66;;;8.56;51.61
45327;BME280;31062;49.678;24.560;2023-02-18T07:26:07;97532.84;;;9.38;52.46
45327;BME280;31062;49.678;24.560;2023-02-18T07:28:53;97424.66;;;8.65;52.42
45327;BME280;31062;49.678;24.560;2023-02-18T07:31:39;97559.03;;;9.57;51.49
45327;BME280;31062;49.678;24.560;2023-02-18T07:34:25;97578.38;;;9.76;51.97
45327;BME280;31062;49.678;24.560;2023-02-18T07:37:10;97505.66;;;9.25;51.90
45327;BME280;31062;49.678;24.560;2023-02-18T07:39:57;97565.69;;;9.73;51.73
45327;BME280;31062;49.678;24.560;2023-02-18T07:42:43;97568.16;;;9.78;51.20
45327;BME280;31062;49.678;24.560;2023-02-18T07:45:30;97538.47;;;9.60;51.25
45327;BME280;31062;49.678;24.560;2023-02-18T07:48:17;97577.91;;;9.79;51.00
45327;BME280;31062;49.678;24.560;2023-02-18T07:51:06;97562.81;;;9.71;50.92
45327;BME280;31062;49.678;24.560;2023-02-18T07:53:51;97557.38;;;9.73;50.91
45327;BME280;31062;49.678;24.560;2023-02-18T07:56:37;97575.19;;;9.70;50.38
45327;BME280;31062;49.678;24.560;2023-02-18T07:59:23;97562.66;;;9.69;49.87
45327;BME280;31062;49.678;24.560;2023-02-18T08:02:22;97546.84;;;9.40;50.44
45327;BME280;31062;49.678;24.560;2023-02-18T08:05:09;97432.53;;;8.69;51.33
45327;BME280;31062;49.678;24.560;2023-02-18T08:07:55;97567.16;;;9.74;50.50
45327;BME280;31062;49.678;24.560;2023-02-18T08:10:41;97568.88;;;9.79;50.29
45327;BME280;31062;49.678;24.560;2023-02-18T08:13:28;97568.47;;;9.82;49.01
45327;BME280;31062;49.678;24.560;2023-02-18T08:16:15;97416.69;;;8.69;49.17
45327;BME280;31062;49.678;24.560;2023-02-18T08:19:01;97577.78;;;9.77;48.78
45327;BME280;31062;49.678;24.560;2023-02-18T08:21:48;97420.00;;;8.68;48.88
45327;BME280;31062;49.678;24.560;2023-02-18T08:24:33;97425.81;;;8.72;49.62
45327;BME280;31062;49.678;24.560;2023-02-18T08:27:19;97493.88;;;9.15;48.00
45327;BME280;31062;49.678;24.560;2023-02-18T08:30:06;97515.97;;;9.34;47.96
45327;BME280;31062;49.678;24.560;2023-02-18T08:32:52;97560.50;;;9.58;48.01
45327;BME280;31062;49.678;24.560;2023-02-18T08:35:39;97579.41;;;9.71;49.08
45327;BME280;31062;49.678;24.560;2023-02-18T08:38:25;97525.31;;;9.29;47.14
45327;BME280;31062;49.678;24.560;2023-02-18T08:41:11;97579.25;;;9.59;48.09
45327;BME280;31062;49.678;24.560;2023-02-18T08:43:58;97575.34;;;9.53;47.67
45327;BME280;31062;49.678;24.560;2023-02-18T08:46:44;97540.44;;;9.28;48.03
45327;BME280;31062;49.678;24.560;2023-02-18T08:49:32;97473.50;;;8.82;47.49
45327;BME280;31062;49.678;24.560;2023-02-18T08:52:18;97587.44;;;9.57;46.86
45327;BME280;31062;49.678;24.560;2023-02-18T08:55:04;97326.66;;;7.79;46.67
45327;BME280;31062;49.678;24.560;2023-02-18T08:57:50;97596.47;;;9.58;46.83
45327;BME280;31062;49.678;24.560;2023-02-18T09:00:38;97591.06;;;9.60;47.38
45327;BME280;31062;49.678;24.560;2023-02-18T09:03:24;97479.63;;;8.90;46.24
45327;BME280;31062;49.678;24.560;2023-02-18T09:06:11;97580.59;;;9.49;45.95
45327;BME280;31062;49.678;24.560;2023-02-18T09:08:56;97569.84;;;9.33;45.64
45327;BME280;31062;49.678;24.560;2023-02-18T09:11:42;97428.13;;;8.46;46.70
45327;BME280;31062;49.678;24.560;2023-02-18T09:14:28;97221.03;;;6.75;46.90
45327;BME280;31062;49.678;24.560;2023-02-18T09:17:14;97536.94;;;9.18;46.76
45327;BME280;31062;49.678;24.560;2023-02-18T09:19:59;97521.25;;;9.11;45.89
45327;BME280;31062;49.678;24.560;2023-02-18T09:22:45;97613.63;;;9.66;46.42
45327;BME280;31062;49.678;24.560;2023-02-18T09:25:30;97583.19;;;9.66;46.51
45327;BME280;31062;49.678;24.560;2023-02-18T09:28:16;97626.59;;;9.73;47.08
45327;BME280;31062;49.678;24.560;2023-02-18T09:31:06;97609.09;;;9.80;46.57
45327;BME280;31062;49.678;24.560;2023-02-18T09:34:01;97464.66;;;8.93;47.42
45327;BME280;31062;49.678;24.560;2023-02-18T09:36:47;97603.94;;;9.96;45.75
45327;BME280;31062;49.678;24.560;2023-02-18T09:39:32;97572.25;;;9.68;46.19
45327;BME280;31062;49.678;24.560;2023-02-18T09:42:19;97539.97;;;9.51;46.44
45327;BME280;31062;49.678;24.560;2023-02-18T09:45:10;97596.53;;;9.98;46.19
45327;BME280;31062;49.678;24.560;2023-02-18T09:47:58;97580.13;;;9.71;45.54
45327;BME280;31062;49.678;24.560;2023-02-18T09:50:48;97566.13;;;9.79;46.63
45327;BME280;31062;49.678;24.560;2023-02-18T09:53:36;97435.56;;;8.92;45.84
45327;BME280;31062;49.678;24.560;2023-02-18T09:56:28;97425.22;;;8.83;44.94
45327;BME280;31062;49.678;24.560;2023-02-18T09:59:21;97604.41;;;9.92;46.27
45327;BME280;31062;49.678;24.560;2023-02-18T10:02:13;97620.75;;;9.88;46.57
45327;BME280;31062;49.678;24.560;2023-02-18T10:05:01;97639.09;;;9.93;47.36
45327;BME280;31062;49.678;24.560;2023-02-18T10:07:48;97436.59;;;8.87;45.41
45327;BME280;31062;49.678;24.560;2023-02-18T10:10:42;97599.16;;;9.96;45.07
45327;BME280;31062;49.678;24.560;2023-02-18T10:13:31;97325.94;;;8.08;44.74
45327;BME280;31062;49.678;24.560;2023-02-18T10:16:18;97593.03;;;9.98;45.91
45327;BME280;31062;49.678;24.560;2023-02-18T10:22:01;97577.28;;;10.00;44.73
45327;BME280;31062;49.678;24.560;2023-02-18T10:24:59;97585.72;;;10.02;44.61
45327;BME280;31062;49.678;24.560;2023-02-18T10:27:47;97426.38;;;8.99;43.47
45327;BME280;31062;49.678;24.560;2023-02-18T10:30:40;97602.63;;;10.06;43.05
45327;BME280;31062;49.678;24.560;2023-02-18T10:33:32;97580.91;;;10.03;44.12
45327;BME280;31062;49.678;24.560;2023-02-18T10:36:44;97588.53;;;9.93;43.31
45327;BME280;31062;49.678;24.560;2023-02-18T10:48:50;97401.09;;;8.74;43.70
45327;BME280;31062;49.678;24.560;2023-02-18T11:01:19;97562.88;;;9.92;45.30
45327;BME280;31062;49.678;24.560;2023-02-18T11:04:16;97481.88;;;9.51;43.37
45327;BME280;31062;49.678;24.560;2023-02-18T11:07:05;97484.75;;;9.63;44.04
45327;BME280;31062;49.678;24.560;2023-02-18T11:09:53;97540.25;;;10.05;42.10
45327;BME280;31062;49.678;24.560;2023-02-18T11:12:47;97543.03;;;10.05;40.96
45327;BME280;31062;49.678;24.560;2023-02-18T11:15:34;97526.88;;;9.92;41.43
45327;BME280;31062;49.678;24.560;2023-02-18T11:18:38;97508.88;;;9.72;39.99
45327;BME280;31062;49.678;24.560;2023-02-18T11:21:31;97503.38;;;9.62;40.09
45327;BME280;31062;49.678;24.560;2023-02-18T11:24:19;97376.34;;;8.85;41.02
45327;BME280;31062;49.678;24.560;2023-02-18T11:27:19;97540.88;;;9.94;41.96
45327;BME280;31062;49.678;24.560;2023-02-18T11:33:29;97405.66;;;9.19;42.09
45327;BME280;31062;49.678;24.560;2023-02-18T11:39:26;97556.88;;;10.05;39.83
45327;BME280;31062;49.678;24.560;2023-02-18T11:42:14;97531.38;;;10.07;39.65
45327;BME280;31062;49.678;24.560;2023-02-18T11:45:01;97518.09;;;10.05;39.70
45327;BME280;31062;49.678;24.560;2023-02-18T11:47:59;97513.00;;;10.02;40.02
45327;BME280;31062;49.678;24.560;2023-02-18T11:50:49;97422.56;;;9.54;39.84
45327;BME280;31062;49.678;24.560;2023-02-18T11:53:36;97369.59;;;9.17;40.52
45327;BME280;31062;49.678;24.560;2023-02-18T11:56:22;97456.72;;;9.78;40.10
45327;BME280;31062;49.678;24.560;2023-02-18T11:59:09;97498.13;;;10.07;40.13
45327;BME280;31062;49.678;24.560;2023-02-18T12:04:58;97505.22;;;10.19;40.73
45327;BME280;31062;49.678;24.560;2023-02-18T12:07:50;97516.84;;;10.28;40.51
45327;BME280;31062;49.678;24.560;2023-02-18T12:10:41;97388.75;;;9.34;39.73
45327;BME280;31062;49.678;24.560;2023-02-18T12:13:32;97512.34;;;10.22;39.23
45327;BME280;31062;49.678;24.560;2023-02-18T12:16:42;97511.31;;;10.28;37.90
45327;BME280;31062;49.678;24.560;2023-02-18T12:19:50;97519.22;;;10.21;36.78
45327;BME280;31062;49.678;24.560;2023-02-18T12:22:43;97376.84;;;9.22;37.80
45327;BME280;31062;49.678;24.560;2023-02-18T12:26:18;97526.81;;;10.11;37.45
45327;BME280;31062;49.678;24.560;2023-02-18T12:38:43;97544.50;;;9.97;36.66
45327;BME280;31062;49.678;24.560;2023-02-18T12:45:27;97484.38;;;9.78;37.26
45327;BME280;31062;49.678;24.560;2023-02-18T12:51:38;97511.44;;;9.89;38.08
45327;BME280;31062;49.678;24.560;2023-02-18T12:54:34;97510.00;;;9.88;37.33
45327;BME280;31062;49.678;24.560;2023-02-18T12:57:35;97532.16;;;9.88;37.82
45327;BME280;31062;49.678;24.560;2023-02-18T13:15:41;97439.84;;;9.74;37.27
45327;BME280;31062;49.678;24.560;2023-02-18T13:18:36;97491.97;;;10.08;37.14
45327;BME280;31062;49.678;24.560;2023-02-18T13:21:22;97391.19;;;9.40;37.83
45327;BME280;31062;49.678;24.560;2023-02-18T13:24:14;97501.75;;;10.09;37.70
45327;BME280;31062;49.678;24.560;2023-02-18T13:38:53;97522.75;;;10.03;36.54
45327;BME280;31062;49.678;24.560;2023-02-18T13:41:41;97488.41;;;9.96;37.56
45327;BME280;31062;49.678;24.560;2023-02-18T13:47:39;97508.09;;;9.91;37.29
45327;BME280;31062;49.678;24.560;2023-02-18T13:50:29;97500.09;;;9.85;37.23
45327;BME280;31062;49.678;24.560;2023-02-18T13:53:20;97489.66;;;9.74;37.88
45327;BME280;31062;49.678;24.560;2023-02-18T13:56:10;97505.69;;;9.66;37.02
45327;BME280;31062;49.678;24.560;2023-02-18T13:59:11;97353.53;;;8.75;38.51
45327;BME280;31062;49.678;24.560;2023-02-18T14:08:05;97377.69;;;8.65;38.18
45327;BME280;31062;49.678;24.560;2023-02-18T14:14:26;97517.69;;;9.59;39.00
45327;BME280;31062;49.678;24.560;2023-02-18T14:22:51;97499.94;;;9.42;36.86
45327;BME280;31062;49.678;24.560;2023-02-18T14:25:39;97521.94;;;9.31;37.33
45327;BME280;31062;49.678;24.560;2023-02-18T14:28:38;97460.44;;;8.92;37.36
45327;BME280;31062;49.678;24.560;2023-02-18T14:49:49;97462.47;;;8.82;38.74
45327;BME280;31062;49.678;24.560;2023-02-18T14:52:41;97500.88;;;8.97;38.46
45327;BME280;31062;49.678;24.560;2023-02-18T14:55:29;97469.16;;;8.98;39.19
45327;BME280;31062;49.678;24.560;2023-02-18T14:58:29;97403.59;;;8.50;39.09
45327;BME280;31062;49.678;24.560;2023-02-18T15:01:19;97411.16;;;8.50;38.76
45327;BME280;31062;49.678;24.560;2023-02-18T15:04:06;97475.41;;;8.89;39.39
45327;BME280;31062;49.678;24.560;2023-02-18T15:07:03;97458.69;;;8.87;38.99
45327;BME280;31062;49.678;24.560;2023-02-18T15:09:53;97465.97;;;8.92;39.22
45327;BME280;31062;49.678;24.560;2023-02-18T15:12:39;97467.84;;;8.89;39.48
45327;BME280;31062;49.678;24.560;2023-02-18T15:15:26;97446.75;;;8.55;40.11
45327;BME280;31062;49.678;24.560;2023-02-18T15:18:32;97292.66;;;7.67;39.42
45327;BME280;31062;49.678;24.560;2023-02-18T15:21:24;97471.06;;;8.86;39.62
45327;BME280;31062;49.678;24.560;2023-02-18T15:24:26;97452.72;;;8.81;39.76
45327;BME280;31062;49.678;24.560;2023-02-18T15:27:17;97462.88;;;8.88;39.70
45327;BME280;31062;49.678;24.560;2023-02-18T15:33:10;97392.63;;;8.24;39.99
45327;BME280;31062;49.678;24.560;2023-02-18T15:36:04;97291.19;;;7.66;39.90
45327;BME280;31062;49.678;24.560;2023-02-18T15:38:50;97282.03;;;7.54;40.12
45327;BME280;31062;49.678;24.560;2023-02-18T15:41:36;97413.75;;;8.48;40.28
45327;BME280;31062;49.678;24.560;2023-02-18T15:44:24;97397.75;;;8.27;40.97
45327;BME280;31062;49.678;24.560;2023-02-18T15:47:11;97475.13;;;8.66;41.78
45327;BME280;31062;49.678;24.560;2023-02-18T15:50:00;97303.94;;;7.52;41.96
45327;BME280;31062;49.678;24.560;2023-02-18T15:52:48;97477.16;;;8.65;43.20
45327;BME280;31062;49.678;24.560;2023-02-18T15:55:39;97467.69;;;8.58;44.92
45327;BME280;31062;49.678;24.560;2023-02-18T15:58:28;97433.94;;;8.31;45.70
45327;BME280;31062;49.678;24.560;2023-02-18T16:01:25;97488.19;;;8.55;47.08
45327;BME280;31062;49.678;24.560;2023-02-18T16:04:13;97458.69;;;8.48;47.57
45327;BME280;31062;49.678;24.560;2023-02-18T16:07:02;97461.00;;;8.42;49.09
45327;BME280;31062;49.678;24.560;2023-02-18T16:09:49;97297.44;;;7.11;49.82
45327;BME280;31062;49.678;24.560;2023-02-18T16:12:38;97433.59;;;8.08;51.32
45327;BME280;31062;49.678;24.560;2023-02-18T16:15:26;97486.78;;;8.18;51.35
45327;BME280;31062;49.678;24.560;2023-02-18T16:18:38;97481.13;;;8.16;52.54
45327;BME280;31062;49.678;24.560;2023-02-18T16:21:38;97389.91;;;7.58;53.46
45327;BME280;31062;49.678;24.560;2023-02-18T16:24:29;97428.03;;;7.89;53.74
45327;BME280;31062;49.678;24.560;2023-02-18T16:27:17;97314.28;;;7.15;54.64
45327;BME280;31062;49.678;24.560;2023-02-18T16:30:14;97451.31;;;8.05;55.05
45327;BME280;31062;49.678;24.560;2023-02-18T16:33:01;97439.34;;;7.93;55.04
45327;BME280;31062;49.678;24.560;2023-02-18T16:35:47;97417.09;;;7.71;56.01
45327;BME280;31062;49.678;24.560;2023-02-18T16:38:35;97398.34;;;7.70;56.21
45327;BME280;31062;49.678;24.560;2023-02-18T16:41:21;97316.84;;;7.04;56.41
45327;BME280;31062;49.678;24.560;2023-02-18T16:44:12;97328.91;;;7.08;56.93
45327;BME280;31062;49.678;24.560;2023-02-18T16:46:59;97423.19;;;7.70;57.82
45327;BME280;31062;49.678;24.560;2023-02-18T16:49:48;97411.19;;;7.48;57.89
45327;BME280;31062;49.678;24.560;2023-02-18T16:52:34;97423.34;;;7.82;58.26
45327;BME280;31062;49.678;24.560;2023-02-18T16:55:25;97351.22;;;7.39;58.61
45327;BME280;31062;49.678;24.560;2023-02-18T16:58:12;97420.75;;;7.84;58.79
45327;BME280;31062;49.678;24.560;2023-02-18T17:00:57;97255.25;;;6.72;58.70
45327;BME280;31062;49.678;24.560;2023-02-18T17:03:43;97398.81;;;7.76;58.90
45327;BME280;31062;49.678;24.560;2023-02-18T17:06:32;97402.91;;;7.85;59.46
45327;BME280;31062;49.678;24.560;2023-02-18T17:09:22;97363.78;;;7.59;59.51
45327;BME280;31062;49.678;24.560;2023-02-18T17:12:10;97315.16;;;7.18;60.19
45327;BME280;31062;49.678;24.560;2023-02-18T17:14:56;97373.66;;;7.62;59.84
45327;BME280;31062;49.678;24.560;2023-02-18T17:17:41;97405.75;;;7.67;60.66
45327;BME280;31062;49.678;24.560;2023-02-18T17:20:28;97406.81;;;7.82;60.68
45327;BME280;31062;49.678;24.560;2023-02-18T17:23:20;97296.56;;;7.09;61.47
45327;BME280;31062;49.678;24.560;2023-02-18T17:26:25;97391.13;;;7.74;61.50
45327;BME280;31062;49.678;24.560;2023-02-18T17:29:11;97319.09;;;7.24;61.98